createdAt,value
2023-05-15T00:07:26.856Z,91460.44
2023-05-15T00:17:33.488Z,91127.56
2023-05-15T00:27:40.033Z,90921.19
2023-05-15T00:37:47.138Z,90701.31
2023-05-15T00:47:54.958Z,90283.44
2023-05-15T00:58:02.713Z,90098.22
2023-05-15T01:08:36.527Z,89984.56
2023-05-15T01:18:43.125Z,90246.34
2023-05-15T01:29:25.111Z,90680.37
2023-05-15T01:39:34.500Z,90609.56
2023-05-15T01:49:41.007Z,90446.50
2023-05-15T01:59:47.595Z,90250.72
2023-05-15T02:09:54.372Z,90011.75
2023-05-15T02:19:59.879Z,90032.37
2023-05-15T02:30:28.080Z,90123.31
2023-05-15T02:40:35.863Z,90042.31
2023-05-15T02:50:42.776Z,90146.22
2023-05-15T03:00:49.415Z,90264.22
2023-05-15T03:10:56.165Z,90350.31
2023-05-15T03:21:02.634Z,90247.09
2023-05-15T03:31:12.289Z,90067.41
2023-05-15T03:41:18.804Z,90000.22
2023-05-15T03:51:25.675Z,89826.44
2023-05-15T04:01:32.416Z,89663.47
2023-05-15T04:11:39.004Z,89567.41
2023-05-15T04:21:45.473Z,89335.97
2023-05-15T04:31:52.137Z,89332.22
2023-05-15T04:41:58.633Z,89356.56
2023-05-15T04:52:05.586Z,89179.41
2023-05-15T05:02:12.123Z,89098.69
2023-05-15T05:12:18.688Z,89126.44
2023-05-15T05:22:25.349Z,89018.31
2023-05-15T05:32:31.833Z,89063.72
2023-05-15T05:42:38.314Z,89005.31
2023-05-15T05:52:44.864Z,88999.69
2023-05-15T06:02:54.342Z,89050.69
2023-05-15T06:13:00.866Z,89052.81
2023-05-15T06:23:07.315Z,89083.31
2023-05-15T06:33:13.837Z,89143.38
2023-05-15T06:43:20.349Z,89089.84
2023-05-15T06:53:26.999Z,88995.16
2023-05-15T07:03:33.525Z,89047.09
2023-05-15T07:13:40.316Z,89083.34
2023-05-15T07:23:46.928Z,89224.66
2023-05-15T07:33:53.446Z,89284.84
2023-05-15T07:43:59.896Z,89370.19
2023-05-15T07:54:07.082Z,89317.88
2023-05-15T08:04:13.682Z,89352.44
2023-05-15T08:14:20.233Z,89367.28
2023-05-15T08:24:26.803Z,89368.97
2023-05-15T08:34:33.315Z,89478.16
2023-05-15T08:44:40.771Z,89678.97
2023-05-15T08:54:49.243Z,90927.06
2023-05-15T09:04:55.767Z,91067.03
2023-05-15T09:15:15.153Z,91441.72
2023-05-15T09:25:41.853Z,91717.03
2023-05-15T09:35:48.327Z,91936.72
2023-05-15T09:45:54.943Z,92030.94
2023-05-15T09:56:01.532Z,92039.13
2023-05-15T10:06:08.884Z,92008.78
2023-05-15T10:16:15.852Z,91964.28
2023-05-15T10:26:25.646Z,92108.88
2023-05-15T10:36:33.306Z,92359.34
2023-05-15T10:46:39.967Z,92528.12
2023-05-15T10:56:46.515Z,92615.53
2023-05-15T11:07:13.592Z,92639.00
2023-05-15T11:17:20.224Z,92666.72
2023-05-15T11:27:31.986Z,92702.84
2023-05-15T11:37:49.764Z,92850.34
2023-05-15T11:47:56.605Z,92939.47
2023-05-15T11:58:03.539Z,93229.91
2023-05-15T12:08:14.431Z,93272.97
2023-05-15T12:18:21.124Z,93319.78
2023-05-15T12:29:47.269Z,93423.56
2023-05-15T12:39:57.615Z,93423.56
2023-05-15T12:50:05.383Z,93570.44
2023-05-15T13:00:13.038Z,93694.16
2023-05-15T13:10:24.384Z,93778.34
2023-05-15T13:20:35.025Z,93877.53
2023-05-15T13:30:44.961Z,93907.94
2023-05-15T13:40:51.518Z,94102.78
2023-05-15T13:50:58.018Z,94175.22
2023-05-15T14:01:07.290Z,94336.09
2023-05-15T14:11:13.941Z,94368.66
2023-05-15T14:21:20.472Z,94551.19
2023-05-15T14:31:27.348Z,94559.16
2023-05-15T14:41:33.907Z,94630.34
2023-05-15T14:51:40.407Z,94745.94
2023-05-15T15:01:47.985Z,94692.62
2023-05-15T15:11:54.529Z,94644.38
2023-05-15T15:22:01.135Z,94654.47
2023-05-15T15:32:08.051Z,94793.03
2023-05-15T15:42:14.841Z,94933.19
2023-05-15T15:52:21.700Z,95061.44
2023-05-15T16:02:29.602Z,95096.22
2023-05-15T16:12:36.132Z,95065.75
2023-05-15T16:22:43.126Z,94896.16
2023-05-15T16:32:49.802Z,94675.22
2023-05-15T16:42:56.640Z,94639.12
2023-05-15T16:53:03.388Z,94639.19
2023-05-15T17:03:10.073Z,94592.31
2023-05-15T17:13:17.263Z,94525.31
2023-05-15T17:23:23.789Z,94525.62
2023-05-15T17:33:30.372Z,94538.94
2023-05-15T17:43:36.884Z,94546.66
2023-05-15T17:53:43.428Z,94519.81
2023-05-15T18:03:50.078Z,94464.12
2023-05-15T18:13:56.700Z,94439.69
2023-05-15T18:24:03.199Z,94430.03
2023-05-15T18:34:09.730Z,94410.78
2023-05-15T18:44:16.345Z,94410.19
2023-05-15T18:54:22.985Z,94370.63
2023-05-15T19:04:29.617Z,94296.19
2023-05-15T19:14:36.141Z,94258.12
2023-05-15T19:24:42.667Z,94254.44
2023-05-15T19:34:50.246Z,94269.13
2023-05-15T19:44:56.793Z,94270.37
2023-05-15T19:55:03.249Z,94229.97
2023-05-15T20:05:10.295Z,94125.03
2023-05-15T20:15:17.646Z,93961.12
2023-05-15T20:25:24.494Z,93875.31
2023-05-15T20:35:31.268Z,93811.87
2023-05-15T20:45:37.948Z,93825.84
2023-05-15T20:55:44.470Z,93830.59
2023-05-15T21:05:56.019Z,93814.97
2023-05-15T21:16:03.347Z,93812.69
2023-05-15T21:26:09.858Z,93826.19
2023-05-15T21:36:16.324Z,93804.31
2023-05-15T21:46:22.921Z,93838.16
2023-05-15T21:56:29.445Z,93860.91
2023-05-15T22:06:35.972Z,93834.50
2023-05-15T22:16:42.645Z,93772.25
2023-05-15T22:26:49.235Z,93777.47
2023-05-15T22:36:56.412Z,93838.59
2023-05-15T22:47:03.051Z,93901.94
2023-05-15T22:57:10.748Z,93888.72
2023-05-15T23:07:19.296Z,93917.34
2023-05-15T23:17:26.621Z,93980.69
2023-05-15T23:27:33.865Z,93987.56
2023-05-15T23:37:40.424Z,94064.13
2023-05-15T23:47:47.993Z,94091.47
2023-05-15T23:57:54.527Z,94133.91
